createdAt,value
2019-01-19T00:00:36.576Z,0.50
2019-01-19T00:03:44.840Z,0.50
2019-01-19T00:07:01.478Z,0.50
2019-01-19T00:10:10.660Z,0.50
2019-01-19T00:13:31.912Z,0.50
2019-01-19T00:16:17.333Z,0.40
2019-01-19T00:19:50.483Z,0.40
2019-01-19T00:23:24.521Z,0.40
2019-01-19T00:26:54.757Z,0.40
2019-01-19T00:30:08.337Z,0.40
2019-01-19T00:33:19.304Z,0.40
2019-01-19T00:37:02.957Z,0.40
2019-01-19T00:40:34.220Z,0.40
2019-01-19T00:43:38.602Z,0.40
2019-01-19T00:47:02.168Z,0.40
2019-01-19T00:49:47.860Z,0.40
2019-01-19T00:53:10.096Z,0.40
2019-01-19T00:56:06.216Z,0.40
2019-01-19T00:58:56.447Z,0.30
2019-01-19T01:02:14.455Z,0.30
2019-01-19T01:05:32.934Z,0.30
2019-01-19T01:09:09.192Z,0.30
2019-01-19T01:12:07.869Z,0.30
2019-01-19T01:15:54.883Z,0.20
2019-01-19T01:19:24.541Z,0.20
2019-01-19T01:23:06.091Z,0.20
2019-01-19T01:26:54.219Z,0.20
2019-01-19T01:30:30.593Z,0.10
2019-01-19T01:33:44.379Z,0.10
2019-01-19T01:37:20.072Z,0.10
2019-01-19T01:40:37.651Z,0.10
2019-01-19T01:43:53.588Z,0.10
2019-01-19T01:47:41.285Z,0.10
2019-01-19T01:51:01.431Z,0.00
2019-01-19T01:54:28.948Z,0.00
2019-01-19T01:57:07.274Z,0.00
2019-01-19T02:00:25.076Z,0.00
2019-01-19T02:04:10.569Z,0.00
2019-01-19T02:07:08.136Z,0.00
2019-01-19T02:10:37.267Z,0.00
2019-01-19T02:13:50.591Z,-0.10
2019-01-19T02:17:26.200Z,-0.10
2019-01-19T02:20:40.826Z,0.00
2019-01-19T02:24:01.415Z,0.00
2019-01-19T02:27:23.733Z,0.00
2019-01-19T02:30:44.423Z,0.10
2019-01-19T02:34:07.670Z,0.00
2019-01-19T02:37:19.116Z,0.00
2019-01-19T02:40:11.958Z,-0.10
2019-01-19T02:42:53.393Z,-0.10
2019-01-19T02:46:23.122Z,-0.10
2019-01-19T02:50:08.357Z,-0.10
2019-01-19T02:53:27.100Z,-0.10
2019-01-19T02:56:42.679Z,-0.10
2019-01-19T02:59:53.052Z,-0.10
2019-01-19T03:03:24.899Z,-0.20
2019-01-19T03:06:40.895Z,-0.20
2019-01-19T03:09:42.437Z,-0.20
2019-01-19T03:12:59.762Z,-0.20
2019-01-19T03:16:27.594Z,-0.30
2019-01-19T03:19:22.391Z,-0.30
2019-01-19T03:22:45.899Z,-0.30
2019-01-19T03:26:02.821Z,-0.30
2019-01-19T03:29:25.068Z,-0.30
2019-01-19T03:32:46.684Z,-0.30
2019-01-19T03:36:06.945Z,-0.30
2019-01-19T03:39:15.921Z,-0.40
2019-01-19T03:42:49.086Z,-0.40
2019-01-19T03:46:11.289Z,-0.40
2019-01-19T03:50:04.027Z,-0.40
2019-01-19T03:53:40.808Z,-0.40
2019-01-19T03:57:10.593Z,-0.40
2019-01-19T04:00:23.850Z,-0.40
2019-01-19T04:03:55.426Z,-0.40
2019-01-19T04:07:19.304Z,-0.40
2019-01-19T04:10:40.025Z,-0.40
2019-01-19T04:14:00.306Z,-0.40
2019-01-19T04:17:28.866Z,-0.50
2019-01-19T04:21:00.804Z,-0.50
2019-01-19T04:23:31.315Z,-0.50
2019-01-19T04:26:30.420Z,-0.50
2019-01-19T04:29:00.946Z,-0.50
2019-01-19T04:31:31.462Z,-0.50
2019-01-19T04:34:02.181Z,-0.50
2019-01-19T04:36:32.974Z,-0.50
2019-01-19T04:39:03.598Z,-0.50
2019-01-19T04:41:33.883Z,-0.60
2019-01-19T04:44:04.256Z,-0.60
2019-01-19T04:46:34.548Z,-0.60
2019-01-19T04:49:05.043Z,-0.60
2019-01-19T04:51:35.361Z,-0.60
2019-01-19T04:54:05.784Z,-0.60
2019-01-19T04:56:36.093Z,-0.60
2019-01-19T04:59:06.544Z,-0.60
2019-01-19T05:01:36.839Z,-0.60
2019-01-19T05:04:07.436Z,-0.70
2019-01-19T05:06:37.797Z,-0.70
2019-01-19T05:09:09.662Z,-0.70
2019-01-19T05:11:39.964Z,-0.70
2019-01-19T05:14:10.306Z,-0.70
2019-01-19T05:16:40.653Z,-0.70
2019-01-19T05:19:10.951Z,-0.70
2019-01-19T05:21:41.346Z,-0.80
2019-01-19T05:24:11.647Z,-0.80
2019-01-19T05:26:42.199Z,-0.80
2019-01-19T05:29:12.627Z,-0.80
2019-01-19T05:31:42.896Z,-0.80
2019-01-19T05:34:13.207Z,-0.80
2019-01-19T05:36:43.711Z,-0.80
2019-01-19T05:39:14.238Z,-0.80
2019-01-19T05:41:44.548Z,-0.80
2019-01-19T05:44:15.202Z,-0.80
2019-01-19T05:46:45.530Z,-0.80
2019-01-19T05:49:16.117Z,-0.80
2019-01-19T05:51:46.540Z,-0.80
2019-01-19T05:54:16.908Z,-0.90
2019-01-19T05:56:47.506Z,-0.90
2019-01-19T05:59:17.867Z,-0.90
2019-01-19T06:01:48.217Z,-0.90
2019-01-19T06:04:18.497Z,-0.90
2019-01-19T06:06:48.850Z,-0.90
2019-01-19T06:09:19.138Z,-0.90
2019-01-19T06:11:49.510Z,-0.90
2019-01-19T06:14:19.830Z,-1.00
2019-01-19T06:16:50.367Z,-1.00
2019-01-19T06:19:20.989Z,-1.00
2019-01-19T06:21:56.171Z,-0.90
2019-01-19T06:24:26.521Z,-0.90
2019-01-19T06:26:56.848Z,-1.00
2019-01-19T06:29:27.195Z,-1.00
2019-01-19T06:31:57.535Z,-1.00
2019-01-19T06:34:27.863Z,-1.00
2019-01-19T06:36:58.164Z,-1.00
2019-01-19T06:39:28.721Z,-1.10
2019-01-19T06:41:59.011Z,-1.10
2019-01-19T06:44:29.316Z,-1.10
2019-01-19T06:46:59.729Z,-1.00
2019-01-19T06:49:30.076Z,-1.00
2019-01-19T06:52:00.748Z,-1.00
2019-01-19T06:54:31.474Z,-1.00
2019-01-19T06:57:01.930Z,-1.00
2019-01-19T06:59:32.273Z,-1.10
2019-01-19T07:02:02.627Z,-1.10
2019-01-19T07:04:32.974Z,-1.10
2019-01-19T07:07:04.536Z,-1.10
2019-01-19T07:09:35.642Z,-1.10
2019-01-19T07:12:06.554Z,-1.10
2019-01-19T07:14:37.242Z,-1.10
2019-01-19T07:17:07.586Z,-1.10
2019-01-19T07:19:37.857Z,-1.00
2019-01-19T07:22:08.295Z,-1.00
2019-01-19T07:24:38.629Z,-1.00
2019-01-19T07:27:08.964Z,-1.10
2019-01-19T07:29:39.869Z,-1.10
2019-01-19T07:32:10.462Z,-1.10
2019-01-19T07:34:40.793Z,-1.10
2019-01-19T07:37:11.210Z,-1.10
2019-01-19T07:39:41.537Z,-1.10
2019-01-19T07:42:11.816Z,-1.10
2019-01-19T07:44:42.110Z,-1.20
2019-01-19T07:47:13.007Z,-1.20
2019-01-19T07:49:43.270Z,-1.20
2019-01-19T07:52:13.454Z,-1.10
2019-01-19T07:54:43.803Z,-1.10
2019-01-19T07:57:14.088Z,-1.10
2019-01-19T07:59:44.766Z,-1.10
2019-01-19T08:02:15.052Z,-1.10
2019-01-19T08:04:45.383Z,-1.10
2019-01-19T08:07:17.400Z,-1.10
2019-01-19T08:09:48.326Z,-1.00
2019-01-19T08:12:18.642Z,-0.90
2019-01-19T08:14:49.041Z,-0.90
2019-01-19T08:17:19.354Z,-0.90
2019-01-19T08:19:49.617Z,-0.80
2019-01-19T08:22:20.217Z,-0.90
2019-01-19T08:24:50.513Z,-0.90
2019-01-19T08:27:21.380Z,-0.90
2019-01-19T08:29:51.922Z,-0.80
2019-01-19T08:32:22.248Z,-0.90
2019-01-19T08:34:52.633Z,-0.90
2019-01-19T08:37:24.509Z,-0.80
2019-01-19T08:39:54.913Z,-0.70
2019-01-19T08:42:25.194Z,-0.60
2019-01-19T08:44:56.698Z,-0.60
2019-01-19T08:47:27.050Z,-0.50
2019-01-19T08:49:57.577Z,-0.40
2019-01-19T08:52:27.929Z,-0.30
2019-01-19T08:54:58.494Z,-0.40
2019-01-19T08:57:29.110Z,-0.30
2019-01-19T08:59:59.437Z,-0.30
2019-01-19T09:02:29.697Z,-0.30
2019-01-19T09:05:00.246Z,-0.20
2019-01-19T09:07:33.778Z,-0.20
2019-01-19T09:10:02.636Z,-0.10
2019-01-19T09:12:32.909Z,-0.10
2019-01-19T09:15:03.285Z,-0.10
2019-01-19T09:17:33.549Z,-0.20
2019-01-19T09:20:03.967Z,-0.10
2019-01-19T09:22:34.319Z,0.00
2019-01-19T09:25:05.358Z,0.10
2019-01-19T09:27:35.582Z,0.30
2019-01-19T09:30:08.488Z,0.40
2019-01-19T09:32:38.887Z,0.30
2019-01-19T09:35:09.801Z,0.30
2019-01-19T09:37:40.976Z,0.30
2019-01-19T09:40:13.219Z,0.40
2019-01-19T09:42:43.984Z,0.30
2019-01-19T09:45:15.027Z,0.50
2019-01-19T09:47:45.363Z,0.50
2019-01-19T09:50:16.360Z,0.50
2019-01-19T09:52:46.761Z,0.60
2019-01-19T09:55:17.021Z,0.70
2019-01-19T09:57:47.310Z,0.70
2019-01-19T10:00:18.523Z,0.90
2019-01-19T10:02:48.824Z,0.80
2019-01-19T10:05:21.799Z,0.90
2019-01-19T10:07:52.209Z,1.00
2019-01-19T10:10:22.531Z,1.10
2019-01-19T10:12:53.129Z,1.10
2019-01-19T10:15:23.569Z,1.40
2019-01-19T10:17:53.809Z,1.50
2019-01-19T10:20:25.857Z,1.60
2019-01-19T10:22:56.058Z,1.40
2019-01-19T10:25:26.533Z,1.40
2019-01-19T10:27:56.817Z,1.40
2019-01-19T10:30:27.738Z,1.40
2019-01-19T10:32:58.183Z,1.50
2019-01-19T10:35:28.739Z,1.50
2019-01-19T10:37:59.001Z,1.60
2019-01-19T10:40:29.341Z,1.80
2019-01-19T10:42:59.641Z,1.90
2019-01-19T10:45:29.949Z,2.00
2019-01-19T10:48:00.304Z,2.10
2019-01-19T10:50:30.575Z,2.10
2019-01-19T10:53:01.283Z,2.30
2019-01-19T10:55:31.811Z,2.40
2019-01-19T10:58:02.183Z,2.40
2019-01-19T11:00:32.740Z,2.50
2019-01-19T11:03:03.209Z,2.60
2019-01-19T11:05:33.666Z,2.60
2019-01-19T11:08:05.358Z,2.70
2019-01-19T11:10:35.554Z,2.80
2019-01-19T11:13:05.923Z,2.80
2019-01-19T11:15:36.247Z,2.90
2019-01-19T11:18:06.662Z,3.00
2019-01-19T11:20:37.133Z,2.90
2019-01-19T11:23:07.454Z,2.90
2019-01-19T11:25:37.730Z,3.00
2019-01-19T11:28:08.251Z,3.10
2019-01-19T11:30:38.522Z,3.10
2019-01-19T11:33:08.808Z,3.20
2019-01-19T11:35:39.200Z,3.30
2019-01-19T11:38:12.095Z,3.50
2019-01-19T11:40:41.499Z,3.40
2019-01-19T11:43:12.435Z,3.40
2019-01-19T11:45:42.715Z,3.50
2019-01-19T11:48:13.017Z,3.60
2019-01-19T11:50:43.385Z,3.70
2019-01-19T11:53:13.664Z,3.80
2019-01-19T11:55:43.927Z,3.80
2019-01-19T11:58:14.214Z,3.70
2019-01-19T12:00:44.573Z,3.80
2019-01-19T12:03:14.842Z,3.80
2019-01-19T12:05:45.229Z,3.90
2019-01-19T12:08:19.715Z,3.80
2019-01-19T12:10:47.608Z,3.70
2019-01-19T12:13:17.897Z,3.90
2019-01-19T12:15:48.158Z,4.00
2019-01-19T12:18:18.434Z,4.00
2019-01-19T12:20:51.432Z,4.00
2019-01-19T12:23:21.802Z,3.90
2019-01-19T12:25:52.287Z,4.00
2019-01-19T12:28:22.567Z,4.10
2019-01-19T12:30:52.896Z,4.10
2019-01-19T12:33:23.183Z,4.20
2019-01-19T12:35:53.705Z,4.20
2019-01-19T12:38:26.961Z,4.30
2019-01-19T12:40:56.198Z,4.20
2019-01-19T12:43:26.966Z,4.30
2019-01-19T12:46:07.015Z,4.40
2019-01-19T12:48:37.320Z,4.50
2019-01-19T12:51:10.957Z,4.60
2019-01-19T12:53:41.306Z,4.60
2019-01-19T12:56:11.631Z,4.60
2019-01-19T12:58:41.923Z,4.60
2019-01-19T13:01:12.543Z,4.60
2019-01-19T13:03:42.809Z,4.50
2019-01-19T13:06:40.754Z,4.50
2019-01-19T13:09:43.566Z,4.60
2019-01-19T13:12:38.730Z,4.60
2019-01-19T13:16:21.789Z,4.50
2019-01-19T13:19:53.761Z,4.60
2019-01-19T13:23:35.252Z,4.70
2019-01-19T13:27:01.838Z,4.70
2019-01-19T13:30:59.890Z,4.70
2019-01-19T13:34:03.402Z,4.60
2019-01-19T13:37:06.845Z,4.60
2019-01-19T13:40:41.971Z,4.70
2019-01-19T13:43:47.871Z,4.70
2019-01-19T13:47:34.538Z,4.50
2019-01-19T13:51:23.204Z,4.50
2019-01-19T13:54:40.027Z,4.50
2019-01-19T13:58:13.095Z,4.50
2019-01-19T14:01:57.904Z,4.50
2019-01-19T14:05:12.962Z,4.30
2019-01-19T14:08:34.323Z,4.20
2019-01-19T14:11:59.141Z,4.30
2019-01-19T14:14:47.155Z,4.30
2019-01-19T14:17:47.926Z,4.20
2019-01-19T14:20:48.799Z,4.20
2019-01-19T14:24:28.260Z,4.20
2019-01-19T14:27:51.309Z,4.10
2019-01-19T14:31:29.048Z,4.10
2019-01-19T14:34:33.856Z,4.00
2019-01-19T14:37:57.301Z,4.00
2019-01-19T14:41:19.006Z,3.90
2019-01-19T14:45:04.579Z,3.80
2019-01-19T14:47:59.995Z,3.80
2019-01-19T14:51:24.082Z,3.80
2019-01-19T14:54:41.760Z,3.70
2019-01-19T14:58:00.411Z,3.70
2019-01-19T15:01:31.059Z,3.60
2019-01-19T15:04:51.379Z,3.60
2019-01-19T15:08:14.033Z,3.50
2019-01-19T15:11:29.671Z,3.40
2019-01-19T15:15:02.847Z,3.30
2019-01-19T15:18:28.328Z,3.30
2019-01-19T15:21:41.086Z,3.20
2019-01-19T15:24:56.627Z,3.20
2019-01-19T15:27:54.450Z,3.10
2019-01-19T15:30:54.585Z,3.10
2019-01-19T15:34:05.880Z,3.00
2019-01-19T15:37:39.299Z,3.00
2019-01-19T15:41:10.459Z,3.00
2019-01-19T15:44:34.789Z,2.90
2019-01-19T15:48:11.763Z,2.70
2019-01-19T15:52:05.727Z,2.70
2019-01-19T15:55:50.301Z,2.60
2019-01-19T15:59:13.232Z,2.50
2019-01-19T16:02:29.294Z,2.50
2019-01-19T16:05:39.404Z,2.40
2019-01-19T16:08:52.911Z,2.40
2019-01-19T16:11:46.463Z,2.40
2019-01-19T16:15:04.867Z,2.30
2019-01-19T16:18:59.484Z,2.20
2019-01-19T16:22:30.228Z,2.20
2019-01-19T16:26:02.731Z,2.10
2019-01-19T16:29:32.773Z,2.10
2019-01-19T16:32:59.866Z,2.00
2019-01-19T16:36:45.046Z,2.00
2019-01-19T16:40:35.250Z,2.00
2019-01-19T16:43:43.972Z,1.90
2019-01-19T16:47:07.737Z,1.90
2019-01-19T16:50:34.925Z,1.80
2019-01-19T16:54:02.968Z,1.80
2019-01-19T16:57:20.820Z,1.80
2019-01-19T17:00:40.868Z,1.70
2019-01-19T17:04:06.317Z,1.70
2019-01-19T17:08:00.976Z,1.70
2019-01-19T17:10:51.879Z,1.60
2019-01-19T17:14:18.762Z,1.60
2019-01-19T17:17:22.249Z,1.60
2019-01-19T17:20:29.993Z,1.50
2019-01-19T17:24:01.689Z,1.50
2019-01-19T17:27:19.353Z,1.50
2019-01-19T17:30:36.420Z,1.40
2019-01-19T17:33:42.038Z,1.40
2019-01-19T17:36:54.590Z,1.40
2019-01-19T17:40:05.493Z,1.30
2019-01-19T17:43:21.896Z,1.30
2019-01-19T17:46:45.308Z,1.30
2019-01-19T17:53:01.712Z,1.40
2019-01-19T17:56:16.522Z,1.30
2019-01-19T17:59:49.115Z,1.30
2019-01-19T18:03:28.819Z,1.30
2019-01-19T18:06:31.574Z,1.20
2019-01-19T18:10:01.031Z,1.20
2019-01-19T18:13:13.881Z,1.20
2019-01-19T18:16:06.423Z,1.10
2019-01-19T18:19:26.954Z,1.10
2019-01-19T18:22:54.020Z,1.10
2019-01-19T18:26:02.439Z,1.00
2019-01-19T18:29:20.719Z,1.00
2019-01-19T18:32:28.927Z,1.00
2019-01-19T18:35:34.667Z,1.00
2019-01-19T18:39:01.893Z,0.90
2019-01-19T18:42:29.990Z,0.90
2019-01-19T18:46:22.138Z,1.00
2019-01-19T18:49:37.878Z,0.90
2019-01-19T18:53:07.429Z,0.90
2019-01-19T18:56:19.519Z,0.90
2019-01-19T18:59:19.641Z,0.90
2019-01-19T19:02:33.444Z,0.90
2019-01-19T19:06:03.192Z,0.90
2019-01-19T19:09:27.332Z,0.80
2019-01-19T19:12:37.970Z,0.80
2019-01-19T19:15:44.713Z,0.80
2019-01-19T19:18:40.064Z,0.80
2019-01-19T19:22:10.825Z,0.70
2019-01-19T19:25:37.364Z,0.70
2019-01-19T19:29:12.798Z,0.70
2019-01-19T19:32:21.809Z,0.70
2019-01-19T19:36:02.270Z,0.60
2019-01-19T19:39:26.766Z,0.60
2019-01-19T19:42:49.803Z,0.60
2019-01-19T19:46:04.461Z,0.60
2019-01-19T19:49:17.462Z,0.50
2019-01-19T19:52:04.309Z,0.50
2019-01-19T19:54:36.127Z,0.40
2019-01-19T19:57:06.856Z,0.40
2019-01-19T19:59:40.370Z,0.40
2019-01-19T20:02:10.744Z,0.40
2019-01-19T20:04:41.168Z,0.40
2019-01-19T20:07:11.778Z,0.40
2019-01-19T20:09:42.307Z,0.40
2019-01-19T20:12:12.656Z,0.50
2019-01-19T20:14:42.920Z,0.40
2019-01-19T20:17:13.248Z,0.40
2019-01-19T20:19:43.735Z,0.40
2019-01-19T20:22:13.979Z,0.40
2019-01-19T20:24:44.319Z,0.30
2019-01-19T20:27:14.861Z,0.40
2019-01-19T20:29:45.242Z,0.30
2019-01-19T20:32:15.764Z,0.30
2019-01-19T20:34:46.091Z,0.30
2019-01-19T20:37:16.409Z,0.40
2019-01-19T20:39:46.741Z,0.30
2019-01-19T20:42:17.268Z,0.30
2019-01-19T20:44:47.697Z,0.30
2019-01-19T20:47:17.943Z,0.30
2019-01-19T20:49:48.704Z,0.20
2019-01-19T20:52:19.035Z,0.20
2019-01-19T20:54:49.291Z,0.20
2019-01-19T20:57:19.512Z,0.20
2019-01-19T20:59:49.768Z,0.20
2019-01-19T21:02:20.086Z,0.10
2019-01-19T21:04:50.482Z,0.20
2019-01-19T21:07:20.799Z,0.20
2019-01-19T21:09:51.059Z,0.20
2019-01-19T21:12:21.487Z,0.20
2019-01-19T21:14:52.023Z,0.20
2019-01-19T21:17:23.416Z,0.20
2019-01-19T21:19:53.766Z,0.20
2019-01-19T21:22:24.049Z,0.20
2019-01-19T21:24:54.396Z,0.10
2019-01-19T21:27:24.699Z,0.10
2019-01-19T21:29:55.006Z,0.10
2019-01-19T21:32:25.261Z,0.00
2019-01-19T21:34:55.784Z,0.00
2019-01-19T21:37:26.123Z,0.00
2019-01-19T21:39:56.420Z,0.00
2019-01-19T21:42:26.774Z,0.00
2019-01-19T21:44:57.011Z,0.00
2019-01-19T21:47:27.315Z,0.00
2019-01-19T21:49:57.608Z,-0.10
2019-01-19T21:52:27.866Z,-0.10
2019-01-19T21:54:58.197Z,-0.10
2019-01-19T21:57:28.533Z,-0.10
2019-01-19T21:59:58.777Z,-0.10
2019-01-19T22:02:29.255Z,-0.10
2019-01-19T22:04:59.737Z,-0.20
2019-01-19T22:07:30.041Z,-0.10
2019-01-19T22:10:00.296Z,-0.20
2019-01-19T22:12:30.816Z,-0.20
2019-01-19T22:15:01.096Z,-0.20
2019-01-19T22:17:31.325Z,-0.20
2019-01-19T22:20:01.669Z,-0.30
2019-01-19T22:22:31.958Z,-0.30
2019-01-19T22:25:02.262Z,-0.30
2019-01-19T22:27:32.916Z,-0.30
2019-01-19T22:30:03.299Z,-0.30
2019-01-19T22:32:33.569Z,-0.30
2019-01-19T22:35:04.268Z,-0.30
2019-01-19T22:37:34.514Z,-0.40
2019-01-19T22:40:06.161Z,-0.40
2019-01-19T22:42:36.529Z,-0.40
2019-01-19T22:45:10.171Z,-0.40
2019-01-19T22:47:40.474Z,-0.40
2019-01-19T22:50:13.925Z,-0.40
2019-01-19T22:52:44.293Z,-0.40
2019-01-19T22:55:14.784Z,-0.50
2019-01-19T22:57:45.225Z,-0.50
2019-01-19T23:01:02.971Z,-0.50
2019-01-19T23:03:39.063Z,-0.50
2019-01-19T23:06:09.731Z,-0.50
2019-01-19T23:08:40.042Z,-0.50
2019-01-19T23:11:10.432Z,-0.50
2019-01-19T23:13:40.975Z,-0.60
2019-01-19T23:16:11.299Z,-0.60
2019-01-19T23:18:41.583Z,-0.60
2019-01-19T23:21:11.930Z,-0.60
2019-01-19T23:23:42.190Z,-0.60
2019-01-19T23:26:12.996Z,-0.70
2019-01-19T23:28:43.572Z,-0.70
2019-01-19T23:31:13.951Z,-0.70
2019-01-19T23:33:44.226Z,-0.70
2019-01-19T23:36:14.566Z,-0.80
2019-01-19T23:38:44.842Z,-0.80
2019-01-19T23:41:15.115Z,-0.80
2019-01-19T23:43:45.439Z,-0.80
2019-01-19T23:46:15.723Z,-0.90
2019-01-19T23:48:46.058Z,-0.90
2019-01-19T23:51:16.325Z,-0.90
2019-01-19T23:53:46.754Z,-0.90
2019-01-19T23:56:17.128Z,-0.90
2019-01-19T23:58:47.420Z,-0.90
